sensor_id;sensor_type;location;lat;lon;timestamp;P1;durP1;ratioP1;P2;durP2;ratioP2
19167;SDS011;9716;53.114;18.040;2022-11-04T00:01:49;15.90;;;5.47;;
19167;SDS011;9716;53.114;18.040;2022-11-04T00:04:20;13.25;;;5.47;;
19167;SDS011;9716;53.114;18.040;2022-11-04T00:06:49;19.02;;;6.18;;
19167;SDS011;9716;53.114;18.040;2022-11-04T00:09:19;11.70;;;4.78;;
19167;SDS011;9716;53.114;18.040;2022-11-04T00:11:49;14.27;;;4.82;;
19167;SDS011;9716;53.114;18.040;2022-11-04T00:14:35;10.32;;;4.88;;
19167;SDS011;9716;53.114;18.040;2022-11-04T00:17:04;19.70;;;5.95;;
19167;SDS011;9716;53.114;18.040;2022-11-04T00:19:46;11.95;;;5.78;;
19167;SDS011;9716;53.114;18.040;2022-11-04T00:22:33;15.85;;;4.72;;
19167;SDS011;9716;53.114;18.040;2022-11-04T00:25:19;7.47;;;4.28;;
19167;SDS011;9716;53.114;18.040;2022-11-04T00:28:08;16.10;;;5.38;;
19167;SDS011;9716;53.114;18.040;2022-11-04T00:30:56;13.95;;;5.20;;
19167;SDS011;9716;53.114;18.040;2022-11-04T00:33:47;15.40;;;4.72;;
19167;SDS011;9716;53.114;18.040;2022-11-04T00:36:16;9.13;;;4.75;;
19167;SDS011;9716;53.114;18.040;2022-11-04T00:38:45;12.25;;;5.10;;
19167;SDS011;9716;53.114;18.040;2022-11-04T00:41:13;9.45;;;5.30;;
19167;SDS011;9716;53.114;18.040;2022-11-04T00:43:56;9.20;;;4.85;;
19167;SDS011;9716;53.114;18.040;2022-11-04T00:46:26;11.68;;;5.43;;
19167;SDS011;9716;53.114;18.040;2022-11-04T00:48:55;10.32;;;5.25;;
19167;SDS011;9716;53.114;18.040;2022-11-04T00:51:25;8.88;;;4.18;;
19167;SDS011;9716;53.114;18.040;2022-11-04T00:53:54;10.95;;;5.47;;
19167;SDS011;9716;53.114;18.040;2022-11-04T00:56:24;12.43;;;5.60;;
19167;SDS011;9716;53.114;18.040;2022-11-04T00:58:52;15.05;;;6.13;;
19167;SDS011;9716;53.114;18.040;2022-11-04T01:01:20;10.70;;;4.97;;
19167;SDS011;9716;53.114;18.040;2022-11-04T01:03:49;13.50;;;4.97;;
19167;SDS011;9716;53.114;18.040;2022-11-04T01:06:20;6.97;;;4.40;;
19167;SDS011;9716;53.114;18.040;2022-11-04T01:08:55;15.82;;;5.25;;
19167;SDS011;9716;53.114;18.040;2022-11-04T01:11:24;11.77;;;4.40;;
19167;SDS011;9716;53.114;18.040;2022-11-04T01:13:54;12.93;;;4.65;;
19167;SDS011;9716;53.114;18.040;2022-11-04T01:16:23;11.60;;;5.47;;
19167;SDS011;9716;53.114;18.040;2022-11-04T01:18:54;12.77;;;6.07;;
19167;SDS011;9716;53.114;18.040;2022-11-04T01:21:22;12.25;;;4.93;;
19167;SDS011;9716;53.114;18.040;2022-11-04T01:23:51;11.32;;;4.35;;
19167;SDS011;9716;53.114;18.040;2022-11-04T01:26:21;15.55;;;5.55;;
19167;SDS011;9716;53.114;18.040;2022-11-04T01:28:51;13.63;;;5.30;;
19167;SDS011;9716;53.114;18.040;2022-11-04T01:31:22;11.88;;;5.28;;
19167;SDS011;9716;53.114;18.040;2022-11-04T01:33:52;10.68;;;4.65;;
19167;SDS011;9716;53.114;18.040;2022-11-04T01:36:22;13.05;;;5.20;;
19167;SDS011;9716;53.114;18.040;2022-11-04T01:38:51;10.38;;;4.90;;
19167;SDS011;9716;53.114;18.040;2022-11-04T01:41:23;8.88;;;4.35;;
19167;SDS011;9716;53.114;18.040;2022-11-04T01:43:53;7.93;;;4.85;;
19167;SDS011;9716;53.114;18.040;2022-11-04T01:46:25;11.43;;;4.70;;
19167;SDS011;9716;53.114;18.040;2022-11-04T01:49:03;14.85;;;4.65;;
19167;SDS011;9716;53.114;18.040;2022-11-04T01:51:44;14.52;;;5.22;;
19167;SDS011;9716;53.114;18.040;2022-11-04T01:54:14;16.13;;;6.40;;
19167;SDS011;9716;53.114;18.040;2022-11-04T01:56:46;12.20;;;6.05;;
19167;SDS011;9716;53.114;18.040;2022-11-04T01:59:17;9.48;;;4.88;;
19167;SDS011;9716;53.114;18.040;2022-11-04T02:01:48;11.77;;;5.50;;
19167;SDS011;9716;53.114;18.040;2022-11-04T02:04:17;12.23;;;5.30;;
19167;SDS011;9716;53.114;18.040;2022-11-04T02:06:53;7.65;;;4.65;;
19167;SDS011;9716;53.114;18.040;2022-11-04T02:09:24;9.60;;;5.53;;
19167;SDS011;9716;53.114;18.040;2022-11-04T02:11:55;15.13;;;5.75;;
19167;SDS011;9716;53.114;18.040;2022-11-04T02:14:41;11.32;;;5.20;;
19167;SDS011;9716;53.114;18.040;2022-11-04T02:17:16;9.45;;;5.07;;
19167;SDS011;9716;53.114;18.040;2022-11-04T02:20:21;16.25;;;5.75;;
19167;SDS011;9716;53.114;18.040;2022-11-04T02:23:30;10.45;;;5.03;;
19167;SDS011;9716;53.114;18.040;2022-11-04T02:26:39;14.52;;;5.53;;
19167;SDS011;9716;53.114;18.040;2022-11-04T02:29:42;12.73;;;4.93;;
19167;SDS011;9716;53.114;18.040;2022-11-04T02:32:26;12.65;;;5.50;;
19167;SDS011;9716;53.114;18.040;2022-11-04T02:35:04;10.95;;;5.13;;
19167;SDS011;9716;53.114;18.040;2022-11-04T02:37:39;7.80;;;4.55;;
19167;SDS011;9716;53.114;18.040;2022-11-04T02:40:25;14.98;;;5.40;;
19167;SDS011;9716;53.114;18.040;2022-11-04T02:43:01;10.43;;;5.28;;
19167;SDS011;9716;53.114;18.040;2022-11-04T02:45:38;16.33;;;4.65;;
19167;SDS011;9716;53.114;18.040;2022-11-04T02:48:10;10.95;;;5.05;;
19167;SDS011;9716;53.114;18.040;2022-11-04T02:50:45;14.15;;;4.70;;
19167;SDS011;9716;53.114;18.040;2022-11-04T02:53:19;14.30;;;5.38;;
19167;SDS011;9716;53.114;18.040;2022-11-04T02:55:51;6.95;;;4.45;;
19167;SDS011;9716;53.114;18.040;2022-11-04T02:58:22;11.80;;;4.70;;
19167;SDS011;9716;53.114;18.040;2022-11-04T03:00:57;16.45;;;4.93;;
19167;SDS011;9716;53.114;18.040;2022-11-04T03:03:28;7.47;;;4.63;;
19167;SDS011;9716;53.114;18.040;2022-11-04T03:06:01;8.60;;;5.13;;
19167;SDS011;9716;53.114;18.040;2022-11-04T03:08:32;16.20;;;4.70;;
19167;SDS011;9716;53.114;18.040;2022-11-04T03:11:03;9.80;;;4.47;;
19167;SDS011;9716;53.114;18.040;2022-11-04T03:13:38;9.30;;;4.65;;
19167;SDS011;9716;53.114;18.040;2022-11-04T03:16:13;11.98;;;5.68;;
19167;SDS011;9716;53.114;18.040;2022-11-04T03:18:46;7.25;;;4.47;;
19167;SDS011;9716;53.114;18.040;2022-11-04T03:21:22;12.63;;;5.18;;
19167;SDS011;9716;53.114;18.040;2022-11-04T03:23:53;11.20;;;4.82;;
19167;SDS011;9716;53.114;18.040;2022-11-04T03:26:28;10.27;;;4.22;;
19167;SDS011;9716;53.114;18.040;2022-11-04T03:29:02;13.95;;;4.63;;
19167;SDS011;9716;53.114;18.040;2022-11-04T03:31:42;12.40;;;4.63;;
19167;SDS011;9716;53.114;18.040;2022-11-04T03:34:16;9.73;;;5.10;;
19167;SDS011;9716;53.114;18.040;2022-11-04T03:36:45;12.40;;;4.97;;
19167;SDS011;9716;53.114;18.040;2022-11-04T03:39:13;14.00;;;4.97;;
19167;SDS011;9716;53.114;18.040;2022-11-04T03:41:42;11.75;;;5.00;;
19167;SDS011;9716;53.114;18.040;2022-11-04T03:44:14;10.10;;;5.07;;
19167;SDS011;9716;53.114;18.040;2022-11-04T03:46:44;11.77;;;5.55;;
19167;SDS011;9716;53.114;18.040;2022-11-04T03:49:13;8.65;;;4.80;;
19167;SDS011;9716;53.114;18.040;2022-11-04T03:51:43;14.70;;;5.43;;
19167;SDS011;9716;53.114;18.040;2022-11-04T03:54:11;16.00;;;4.88;;
19167;SDS011;9716;53.114;18.040;2022-11-04T03:56:52;8.77;;;4.93;;
19167;SDS011;9716;53.114;18.040;2022-11-04T03:59:37;11.07;;;5.35;;
19167;SDS011;9716;53.114;18.040;2022-11-04T04:02:17;17.27;;;5.13;;
19167;SDS011;9716;53.114;18.040;2022-11-04T04:04:51;14.63;;;5.15;;
19167;SDS011;9716;53.114;18.040;2022-11-04T04:07:27;14.23;;;5.32;;
19167;SDS011;9716;53.114;18.040;2022-11-04T04:10:02;9.63;;;5.45;;
19167;SDS011;9716;53.114;18.040;2022-11-04T04:12:56;13.20;;;4.80;;
19167;SDS011;9716;53.114;18.040;2022-11-04T04:15:28;11.30;;;5.72;;
19167;SDS011;9716;53.114;18.040;2022-11-04T04:18:10;6.65;;;4.35;;
19167;SDS011;9716;53.114;18.040;2022-11-04T04:20:41;12.77;;;5.28;;
19167;SDS011;9716;53.114;18.040;2022-11-04T04:23:14;11.90;;;5.13;;
19167;SDS011;9716;53.114;18.040;2022-11-04T04:26:05;9.23;;;4.22;;
19167;SDS011;9716;53.114;18.040;2022-11-04T04:28:53;7.90;;;4.72;;
19167;SDS011;9716;53.114;18.040;2022-11-04T04:31:24;9.40;;;4.95;;
19167;SDS011;9716;53.114;18.040;2022-11-04T04:34:13;8.27;;;4.55;;
19167;SDS011;9716;53.114;18.040;2022-11-04T04:36:43;8.73;;;4.38;;
19167;SDS011;9716;53.114;18.040;2022-11-04T04:39:14;11.10;;;5.32;;
19167;SDS011;9716;53.114;18.040;2022-11-04T04:42:04;11.45;;;5.43;;
19167;SDS011;9716;53.114;18.040;2022-11-04T04:44:51;11.40;;;5.78;;
19167;SDS011;9716;53.114;18.040;2022-11-04T04:47:29;8.40;;;4.78;;
19167;SDS011;9716;53.114;18.040;2022-11-04T04:50:03;12.15;;;5.20;;
19167;SDS011;9716;53.114;18.040;2022-11-04T04:52:33;14.48;;;5.47;;
19167;SDS011;9716;53.114;18.040;2022-11-04T04:55:05;11.70;;;4.65;;
19167;SDS011;9716;53.114;18.040;2022-11-04T04:57:35;16.55;;;5.75;;
19167;SDS011;9716;53.114;18.040;2022-11-04T05:00:04;9.85;;;4.53;;
19167;SDS011;9716;53.114;18.040;2022-11-04T05:02:34;9.07;;;5.07;;
19167;SDS011;9716;53.114;18.040;2022-11-04T05:05:05;8.63;;;5.45;;
19167;SDS011;9716;53.114;18.040;2022-11-04T05:07:34;10.07;;;5.32;;
19167;SDS011;9716;53.114;18.040;2022-11-04T05:10:03;10.45;;;5.60;;
19167;SDS011;9716;53.114;18.040;2022-11-04T05:12:33;13.85;;;6.13;;
19167;SDS011;9716;53.114;18.040;2022-11-04T05:15:19;14.52;;;5.50;;
19167;SDS011;9716;53.114;18.040;2022-11-04T05:17:52;6.88;;;3.90;;
19167;SDS011;9716;53.114;18.040;2022-11-04T05:20:22;9.70;;;5.13;;
19167;SDS011;9716;53.114;18.040;2022-11-04T05:22:52;5.90;;;4.07;;
19167;SDS011;9716;53.114;18.040;2022-11-04T05:25:21;9.48;;;5.03;;
19167;SDS011;9716;53.114;18.040;2022-11-04T05:27:49;6.90;;;4.22;;
19167;SDS011;9716;53.114;18.040;2022-11-04T05:30:18;8.02;;;4.47;;
19167;SDS011;9716;53.114;18.040;2022-11-04T05:32:46;10.38;;;4.95;;
19167;SDS011;9716;53.114;18.040;2022-11-04T05:35:15;5.72;;;4.03;;
19167;SDS011;9716;53.114;18.040;2022-11-04T05:37:45;7.72;;;4.28;;
19167;SDS011;9716;53.114;18.040;2022-11-04T05:40:13;13.45;;;4.95;;
19167;SDS011;9716;53.114;18.040;2022-11-04T05:42:42;6.35;;;3.88;;
19167;SDS011;9716;53.114;18.040;2022-11-04T05:45:11;7.15;;;3.97;;
19167;SDS011;9716;53.114;18.040;2022-11-04T05:47:39;9.27;;;4.93;;
19167;SDS011;9716;53.114;18.040;2022-11-04T05:50:08;8.48;;;4.85;;
19167;SDS011;9716;53.114;18.040;2022-11-04T05:52:36;6.88;;;4.85;;
19167;SDS011;9716;53.114;18.040;2022-11-04T05:55:06;11.07;;;4.20;;
19167;SDS011;9716;53.114;18.040;2022-11-04T05:57:35;16.58;;;4.53;;
19167;SDS011;9716;53.114;18.040;2022-11-04T06:00:04;10.73;;;4.28;;
19167;SDS011;9716;53.114;18.040;2022-11-04T06:02:33;13.07;;;5.40;;
19167;SDS011;9716;53.114;18.040;2022-11-04T06:05:02;13.52;;;5.03;;
19167;SDS011;9716;53.114;18.040;2022-11-04T06:07:30;10.52;;;5.85;;
19167;SDS011;9716;53.114;18.040;2022-11-04T06:09:59;12.60;;;5.00;;
19167;SDS011;9716;53.114;18.040;2022-11-04T06:12:29;13.05;;;5.20;;
19167;SDS011;9716;53.114;18.040;2022-11-04T06:14:57;11.52;;;4.95;;
19167;SDS011;9716;53.114;18.040;2022-11-04T06:17:25;12.40;;;5.63;;
19167;SDS011;9716;53.114;18.040;2022-11-04T06:19:54;8.25;;;4.07;;
19167;SDS011;9716;53.114;18.040;2022-11-04T06:22:22;9.70;;;5.15;;
19167;SDS011;9716;53.114;18.040;2022-11-04T06:24:51;7.50;;;3.95;;
19167;SDS011;9716;53.114;18.040;2022-11-04T06:27:19;9.05;;;4.00;;
19167;SDS011;9716;53.114;18.040;2022-11-04T06:29:49;13.70;;;5.57;;
19167;SDS011;9716;53.114;18.040;2022-11-04T06:32:19;15.98;;;4.88;;
19167;SDS011;9716;53.114;18.040;2022-11-04T06:34:47;11.57;;;5.28;;
19167;SDS011;9716;53.114;18.040;2022-11-04T06:37:15;8.85;;;4.85;;
19167;SDS011;9716;53.114;18.040;2022-11-04T06:39:44;20.42;;;5.78;;
19167;SDS011;9716;53.114;18.040;2022-11-04T06:42:13;16.20;;;6.13;;
19167;SDS011;9716;53.114;18.040;2022-11-04T06:44:41;9.63;;;4.85;;
19167;SDS011;9716;53.114;18.040;2022-11-04T06:47:11;14.35;;;5.45;;
19167;SDS011;9716;53.114;18.040;2022-11-04T06:49:39;12.55;;;5.10;;
19167;SDS011;9716;53.114;18.040;2022-11-04T06:52:08;12.40;;;5.18;;
19167;SDS011;9716;53.114;18.040;2022-11-04T06:54:36;7.90;;;4.75;;
19167;SDS011;9716;53.114;18.040;2022-11-04T06:57:04;9.85;;;4.50;;
19167;SDS011;9716;53.114;18.040;2022-11-04T06:59:33;9.15;;;5.80;;
19167;SDS011;9716;53.114;18.040;2022-11-04T07:02:01;11.45;;;4.80;;
19167;SDS011;9716;53.114;18.040;2022-11-04T07:04:32;13.18;;;5.45;;
19167;SDS011;9716;53.114;18.040;2022-11-04T07:07:00;10.55;;;5.28;;
19167;SDS011;9716;53.114;18.040;2022-11-04T07:09:29;17.20;;;4.63;;
19167;SDS011;9716;53.114;18.040;2022-11-04T07:11:57;8.65;;;5.18;;
19167;SDS011;9716;53.114;18.040;2022-11-04T07:14:26;8.38;;;4.25;;
19167;SDS011;9716;53.114;18.040;2022-11-04T07:16:54;8.50;;;5.00;;
19167;SDS011;9716;53.114;18.040;2022-11-04T07:19:23;12.20;;;5.45;;
19167;SDS011;9716;53.114;18.040;2022-11-04T07:21:52;13.27;;;5.10;;
19167;SDS011;9716;53.114;18.040;2022-11-04T07:24:21;7.40;;;4.72;;
19167;SDS011;9716;53.114;18.040;2022-11-04T07:26:49;11.30;;;5.15;;
19167;SDS011;9716;53.114;18.040;2022-11-04T07:29:20;10.02;;;5.60;;
19167;SDS011;9716;53.114;18.040;2022-11-04T07:31:50;11.20;;;4.60;;
19167;SDS011;9716;53.114;18.040;2022-11-04T07:34:20;13.23;;;5.63;;
19167;SDS011;9716;53.114;18.040;2022-11-04T07:36:48;12.23;;;6.22;;
19167;SDS011;9716;53.114;18.040;2022-11-04T07:39:18;9.65;;;4.90;;
19167;SDS011;9716;53.114;18.040;2022-11-04T07:41:46;9.15;;;5.35;;
19167;SDS011;9716;53.114;18.040;2022-11-04T07:44:15;15.02;;;5.00;;
19167;SDS011;9716;53.114;18.040;2022-11-04T07:46:43;9.43;;;5.93;;
19167;SDS011;9716;53.114;18.040;2022-11-04T07:49:12;17.30;;;6.22;;
19167;SDS011;9716;53.114;18.040;2022-11-04T07:51:40;11.88;;;5.65;;
19167;SDS011;9716;53.114;18.040;2022-11-04T07:54:09;22.85;;;5.97;;
19167;SDS011;9716;53.114;18.040;2022-11-04T07:56:39;8.27;;;4.80;;
19167;SDS011;9716;53.114;18.040;2022-11-04T07:59:07;16.70;;;5.68;;
19167;SDS011;9716;53.114;18.040;2022-11-04T08:01:37;13.27;;;5.60;;
19167;SDS011;9716;53.114;18.040;2022-11-04T08:04:06;11.10;;;5.07;;
19167;SDS011;9716;53.114;18.040;2022-11-04T08:06:34;18.23;;;6.15;;
19167;SDS011;9716;53.114;18.040;2022-11-04T08:09:03;12.65;;;5.90;;
19167;SDS011;9716;53.114;18.040;2022-11-04T08:11:31;13.00;;;5.88;;
19167;SDS011;9716;53.114;18.040;2022-11-04T08:14:02;11.48;;;5.65;;
19167;SDS011;9716;53.114;18.040;2022-11-04T08:16:31;15.02;;;6.22;;
19167;SDS011;9716;53.114;18.040;2022-11-04T08:19:00;17.48;;;6.47;;
19167;SDS011;9716;53.114;18.040;2022-11-04T08:21:29;7.28;;;4.63;;
19167;SDS011;9716;53.114;18.040;2022-11-04T08:23:58;14.43;;;5.03;;
19167;SDS011;9716;53.114;18.040;2022-11-04T08:26:28;14.05;;;6.65;;
19167;SDS011;9716;53.114;18.040;2022-11-04T08:28:57;13.55;;;5.80;;
19167;SDS011;9716;53.114;18.040;2022-11-04T08:31:28;12.68;;;5.80;;
19167;SDS011;9716;53.114;18.040;2022-11-04T08:33:59;11.60;;;5.80;;
19167;SDS011;9716;53.114;18.040;2022-11-04T08:36:29;10.13;;;5.50;;
19167;SDS011;9716;53.114;18.040;2022-11-04T08:39:00;21.27;;;7.03;;
19167;SDS011;9716;53.114;18.040;2022-11-04T08:41:37;14.40;;;7.05;;
19167;SDS011;9716;53.114;18.040;2022-11-04T08:44:07;16.77;;;6.65;;
19167;SDS011;9716;53.114;18.040;2022-11-04T08:46:39;20.67;;;6.65;;
19167;SDS011;9716;53.114;18.040;2022-11-04T08:49:08;13.25;;;6.07;;
19167;SDS011;9716;53.114;18.040;2022-11-04T08:51:43;15.60;;;6.78;;
19167;SDS011;9716;53.114;18.040;2022-11-04T08:54:15;13.60;;;6.50;;
19167;SDS011;9716;53.114;18.040;2022-11-04T08:56:43;14.00;;;6.80;;
19167;SDS011;9716;53.114;18.040;2022-11-04T08:59:12;16.55;;;7.20;;
19167;SDS011;9716;53.114;18.040;2022-11-04T09:01:42;15.40;;;6.53;;
19167;SDS011;9716;53.114;18.040;2022-11-04T09:04:11;17.15;;;6.80;;
19167;SDS011;9716;53.114;18.040;2022-11-04T09:06:40;16.38;;;6.65;;
19167;SDS011;9716;53.114;18.040;2022-11-04T09:09:12;12.55;;;7.03;;
19167;SDS011;9716;53.114;18.040;2022-11-04T09:11:42;12.23;;;6.63;;
19167;SDS011;9716;53.114;18.040;2022-11-04T09:14:12;15.73;;;6.60;;
19167;SDS011;9716;53.114;18.040;2022-11-04T09:16:44;17.70;;;6.18;;
19167;SDS011;9716;53.114;18.040;2022-11-04T09:19:13;21.60;;;7.28;;
19167;SDS011;9716;53.114;18.040;2022-11-04T09:21:41;13.68;;;6.40;;
19167;SDS011;9716;53.114;18.040;2022-11-04T09:24:10;10.82;;;6.45;;
19167;SDS011;9716;53.114;18.040;2022-11-04T09:26:38;11.48;;;5.93;;
19167;SDS011;9716;53.114;18.040;2022-11-04T09:29:07;15.48;;;7.30;;
19167;SDS011;9716;53.114;18.040;2022-11-04T09:31:35;15.82;;;7.22;;
19167;SDS011;9716;53.114;18.040;2022-11-04T09:34:06;15.15;;;6.93;;
19167;SDS011;9716;53.114;18.040;2022-11-04T09:36:34;14.18;;;6.72;;
19167;SDS011;9716;53.114;18.040;2022-11-04T09:39:03;12.88;;;6.30;;
19167;SDS011;9716;53.114;18.040;2022-11-04T09:41:44;18.27;;;7.03;;
19167;SDS011;9716;53.114;18.040;2022-11-04T09:44:26;13.15;;;6.50;;
19167;SDS011;9716;53.114;18.040;2022-11-04T09:47:27;14.73;;;7.00;;
19167;SDS011;9716;53.114;18.040;2022-11-04T09:49:59;17.42;;;6.95;;
19167;SDS011;9716;53.114;18.040;2022-11-04T09:52:33;16.02;;;6.20;;
19167;SDS011;9716;53.114;18.040;2022-11-04T09:55:09;14.55;;;6.78;;
19167;SDS011;9716;53.114;18.040;2022-11-04T09:57:42;20.77;;;7.07;;
19167;SDS011;9716;53.114;18.040;2022-11-04T10:00:13;13.60;;;6.68;;
19167;SDS011;9716;53.114;18.040;2022-11-04T10:02:49;11.55;;;5.78;;
19167;SDS011;9716;53.114;18.040;2022-11-04T10:05:41;15.77;;;6.35;;
19167;SDS011;9716;53.114;18.040;2022-11-04T10:08:30;24.13;;;6.90;;
19167;SDS011;9716;53.114;18.040;2022-11-04T10:11:19;11.45;;;6.88;;
19167;SDS011;9716;53.114;18.040;2022-11-04T10:13:55;15.98;;;6.97;;
19167;SDS011;9716;53.114;18.040;2022-11-04T10:16:40;16.40;;;7.35;;
19167;SDS011;9716;53.114;18.040;2022-11-04T10:19:23;10.07;;;6.05;;
19167;SDS011;9716;53.114;18.040;2022-11-04T10:22:16;14.70;;;6.45;;
19167;SDS011;9716;53.114;18.040;2022-11-04T10:24:56;12.75;;;5.88;;
19167;SDS011;9716;53.114;18.040;2022-11-04T10:27:34;15.15;;;6.00;;
19167;SDS011;9716;53.114;18.040;2022-11-04T10:30:06;12.95;;;6.95;;
19167;SDS011;9716;53.114;18.040;2022-11-04T10:32:44;18.30;;;8.20;;
19167;SDS011;9716;53.114;18.040;2022-11-04T10:35:21;16.30;;;6.93;;
19167;SDS011;9716;53.114;18.040;2022-11-04T10:38:00;13.25;;;6.22;;
19167;SDS011;9716;53.114;18.040;2022-11-04T10:40:40;11.80;;;6.22;;
19167;SDS011;9716;53.114;18.040;2022-11-04T10:43:12;15.60;;;7.22;;
19167;SDS011;9716;53.114;18.040;2022-11-04T10:45:46;16.52;;;6.75;;
19167;SDS011;9716;53.114;18.040;2022-11-04T10:48:26;15.85;;;6.05;;
19167;SDS011;9716;53.114;18.040;2022-11-04T10:50:59;14.88;;;6.22;;
19167;SDS011;9716;53.114;18.040;2022-11-04T10:53:30;19.08;;;6.95;;
19167;SDS011;9716;53.114;18.040;2022-11-04T10:56:01;16.73;;;6.97;;
19167;SDS011;9716;53.114;18.040;2022-11-04T10:58:34;15.40;;;7.57;;
19167;SDS011;9716;53.114;18.040;2022-11-04T11:01:21;15.63;;;6.35;;
19167;SDS011;9716;53.114;18.040;2022-11-04T11:03:51;10.80;;;6.30;;
19167;SDS011;9716;53.114;18.040;2022-11-04T11:06:22;21.00;;;7.47;;
19167;SDS011;9716;53.114;18.040;2022-11-04T11:08:56;13.30;;;5.80;;
19167;SDS011;9716;53.114;18.040;2022-11-04T11:11:36;9.38;;;5.43;;
19167;SDS011;9716;53.114;18.040;2022-11-04T11:14:29;13.45;;;6.53;;
19167;SDS011;9716;53.114;18.040;2022-11-04T11:19:48;19.55;;;6.32;;
19167;SDS011;9716;53.114;18.040;2022-11-04T11:22:28;10.80;;;6.07;;
19167;SDS011;9716;53.114;18.040;2022-11-04T11:27:52;10.35;;;4.40;;
19167;SDS011;9716;53.114;18.040;2022-11-04T11:30:24;8.80;;;5.25;;
19167;SDS011;9716;53.114;18.040;2022-11-04T11:32:57;13.95;;;6.18;;
19167;SDS011;9716;53.114;18.040;2022-11-04T11:35:31;12.88;;;5.70;;
19167;SDS011;9716;53.114;18.040;2022-11-04T11:38:13;16.52;;;6.50;;
19167;SDS011;9716;53.114;18.040;2022-11-04T11:40:47;9.45;;;5.75;;
19167;SDS011;9716;53.114;18.040;2022-11-04T11:43:39;15.93;;;5.65;;
19167;SDS011;9716;53.114;18.040;2022-11-04T11:46:10;13.32;;;5.93;;
19167;SDS011;9716;53.114;18.040;2022-11-04T11:48:41;11.45;;;5.22;;
19167;SDS011;9716;53.114;18.040;2022-11-04T11:51:11;10.95;;;5.72;;
19167;SDS011;9716;53.114;18.040;2022-11-04T11:53:41;11.80;;;5.80;;
19167;SDS011;9716;53.114;18.040;2022-11-04T11:56:50;10.43;;;5.20;;
19167;SDS011;9716;53.114;18.040;2022-11-04T11:59:42;11.45;;;5.50;;
19167;SDS011;9716;53.114;18.040;2022-11-04T12:02:37;13.88;;;5.70;;
19167;SDS011;9716;53.114;18.040;2022-11-04T12:05:09;14.80;;;7.60;;
19167;SDS011;9716;53.114;18.040;2022-11-04T12:08:01;15.18;;;6.38;;
19167;SDS011;9716;53.114;18.040;2022-11-04T12:11:03;15.80;;;7.85;;
19167;SDS011;9716;53.114;18.040;2022-11-04T12:13:38;14.00;;;6.60;;
19167;SDS011;9716;53.114;18.040;2022-11-04T12:16:22;13.90;;;6.88;;
19167;SDS011;9716;53.114;18.040;2022-11-04T12:19:08;20.50;;;6.15;;
19167;SDS011;9716;53.114;18.040;2022-11-04T12:21:54;12.13;;;6.57;;
19167;SDS011;9716;53.114;18.040;2022-11-04T12:24:29;16.75;;;7.05;;
19167;SDS011;9716;53.114;18.040;2022-11-04T12:27:04;10.45;;;5.22;;
19167;SDS011;9716;53.114;18.040;2022-11-04T12:29:44;14.93;;;6.80;;
19167;SDS011;9716;53.114;18.040;2022-11-04T12:32:29;16.75;;;6.88;;
19167;SDS011;9716;53.114;18.040;2022-11-04T12:35:10;14.27;;;6.80;;
19167;SDS011;9716;53.114;18.040;2022-11-04T12:37:52;15.98;;;6.00;;
19167;SDS011;9716;53.114;18.040;2022-11-04T12:40:37;17.13;;;7.88;;
19167;SDS011;9716;53.114;18.040;2022-11-04T12:43:34;9.98;;;5.88;;
19167;SDS011;9716;53.114;18.040;2022-11-04T12:46:13;15.00;;;6.85;;
19167;SDS011;9716;53.114;18.040;2022-11-04T12:48:57;15.63;;;6.22;;
19167;SDS011;9716;53.114;18.040;2022-11-04T12:51:41;14.98;;;6.80;;
19167;SDS011;9716;53.114;18.040;2022-11-04T12:54:24;14.52;;;6.25;;
19167;SDS011;9716;53.114;18.040;2022-11-04T12:57:11;14.25;;;6.38;;
19167;SDS011;9716;53.114;18.040;2022-11-04T13:02:39;11.95;;;6.63;;
19167;SDS011;9716;53.114;18.040;2022-11-04T13:08:11;13.20;;;6.50;;
19167;SDS011;9716;53.114;18.040;2022-11-04T13:10:47;14.80;;;7.28;;
19167;SDS011;9716;53.114;18.040;2022-11-04T13:13:20;15.02;;;7.68;;
19167;SDS011;9716;53.114;18.040;2022-11-04T13:15:55;17.05;;;7.32;;
19167;SDS011;9716;53.114;18.040;2022-11-04T13:18:29;21.65;;;7.90;;
19167;SDS011;9716;53.114;18.040;2022-11-04T13:21:02;19.73;;;8.23;;
19167;SDS011;9716;53.114;18.040;2022-11-04T13:23:35;20.27;;;7.47;;
19167;SDS011;9716;53.114;18.040;2022-11-04T13:26:08;16.70;;;8.13;;
19167;SDS011;9716;53.114;18.040;2022-11-04T13:28:41;13.35;;;6.22;;
19167;SDS011;9716;53.114;18.040;2022-11-04T13:31:13;15.68;;;7.15;;
19167;SDS011;9716;53.114;18.040;2022-11-04T13:33:51;15.75;;;6.38;;
19167;SDS011;9716;53.114;18.040;2022-11-04T13:36:27;16.88;;;6.50;;
19167;SDS011;9716;53.114;18.040;2022-11-04T13:39:05;11.40;;;6.22;;
19167;SDS011;9716;53.114;18.040;2022-11-04T13:41:42;15.05;;;6.80;;
19167;SDS011;9716;53.114;18.040;2022-11-04T13:44:29;11.70;;;6.22;;
19167;SDS011;9716;53.114;18.040;2022-11-04T13:47:04;28.65;;;5.50;;
19167;SDS011;9716;53.114;18.040;2022-11-04T13:49:50;16.95;;;6.60;;
19167;SDS011;9716;53.114;18.040;2022-11-04T13:52:20;14.52;;;6.25;;
19167;SDS011;9716;53.114;18.040;2022-11-04T13:54:51;14.00;;;6.28;;
19167;SDS011;9716;53.114;18.040;2022-11-04T13:57:23;10.20;;;5.80;;
19167;SDS011;9716;53.114;18.040;2022-11-04T14:02:51;16.08;;;5.93;;
19167;SDS011;9716;53.114;18.040;2022-11-04T14:08:31;14.13;;;6.18;;
19167;SDS011;9716;53.114;18.040;2022-11-04T14:11:04;14.13;;;5.93;;
19167;SDS011;9716;53.114;18.040;2022-11-04T14:13:41;7.97;;;5.90;;
19167;SDS011;9716;53.114;18.040;2022-11-04T14:22:33;17.73;;;7.28;;
19167;SDS011;9716;53.114;18.040;2022-11-04T14:25:20;13.23;;;4.90;;
19167;SDS011;9716;53.114;18.040;2022-11-04T14:27:53;13.57;;;6.47;;
19167;SDS011;9716;53.114;18.040;2022-11-04T14:30:27;15.43;;;6.00;;
19167;SDS011;9716;53.114;18.040;2022-11-04T14:32:58;16.83;;;6.70;;
19167;SDS011;9716;53.114;18.040;2022-11-04T14:35:29;13.40;;;5.85;;
19167;SDS011;9716;53.114;18.040;2022-11-04T14:38:02;31.60;;;14.25;;
19167;SDS011;9716;53.114;18.040;2022-11-04T14:40:44;15.25;;;7.93;;
19167;SDS011;9716;53.114;18.040;2022-11-04T14:46:01;16.85;;;7.50;;
19167;SDS011;9716;53.114;18.040;2022-11-04T14:48:30;20.38;;;7.57;;
19167;SDS011;9716;53.114;18.040;2022-11-04T14:50:59;15.75;;;6.85;;
19167;SDS011;9716;53.114;18.040;2022-11-04T14:53:30;17.98;;;7.05;;
19167;SDS011;9716;53.114;18.040;2022-11-04T14:56:03;13.25;;;7.07;;
19167;SDS011;9716;53.114;18.040;2022-11-04T14:58:38;12.80;;;6.50;;
19167;SDS011;9716;53.114;18.040;2022-11-04T15:01:21;23.33;;;7.68;;
19167;SDS011;9716;53.114;18.040;2022-11-04T15:04:03;22.58;;;9.65;;
19167;SDS011;9716;53.114;18.040;2022-11-04T15:06:39;76.10;;;30.77;;
19167;SDS011;9716;53.114;18.040;2022-11-04T15:09:26;91.05;;;40.97;;
19167;SDS011;9716;53.114;18.040;2022-11-04T15:11:57;65.65;;;26.77;;
19167;SDS011;9716;53.114;18.040;2022-11-04T15:14:51;51.25;;;22.00;;
19167;SDS011;9716;53.114;18.040;2022-11-04T15:17:19;49.33;;;19.45;;
19167;SDS011;9716;53.114;18.040;2022-11-04T15:19:51;34.80;;;15.60;;
19167;SDS011;9716;53.114;18.040;2022-11-04T15:22:22;41.38;;;16.50;;
19167;SDS011;9716;53.114;18.040;2022-11-04T15:24:52;30.83;;;13.50;;
19167;SDS011;9716;53.114;18.040;2022-11-04T15:27:23;22.63;;;11.80;;
19167;SDS011;9716;53.114;18.040;2022-11-04T15:29:55;35.42;;;11.65;;
19167;SDS011;9716;53.114;18.040;2022-11-04T15:32:25;26.08;;;9.57;;
19167;SDS011;9716;53.114;18.040;2022-11-04T15:34:54;24.98;;;9.82;;
19167;SDS011;9716;53.114;18.040;2022-11-04T15:37:24;23.38;;;9.68;;
19167;SDS011;9716;53.114;18.040;2022-11-04T15:39:56;18.98;;;9.77;;
19167;SDS011;9716;53.114;18.040;2022-11-04T15:42:27;19.27;;;8.25;;
19167;SDS011;9716;53.114;18.040;2022-11-04T15:45:33;22.80;;;8.68;;